Time;durP1;ratioP1;P1;durP2;ratioP2;P2;SDS_P1;SDS_P2;PMS_P1;PMS_P2;Temp;Humidity;BMP_temperature;BMP_pressure;BME280_temperature;BME280_humidity;BME280_pressure;Samples;Min_cycle;Max_cycle;Signal;HPM_P1;HPM_P2
2023/06/10 00:01:15;;;;;;;5.75;3.55;;;21.70;99.90;;;;;;5004244;28;20281;-71
2023/06/10 00:03:43;;;;;;;6.20;3.57;;;21.60;99.90;;;;;;4993232;28;20031;-71
2023/06/10 00:06:08;;;;;;;5.80;3.60;;;21.60;99.90;;;;;;4993495;28;20266;-71
2023/06/10 00:08:34;;;;;;;5.28;3.47;;;21.60;99.90;;;;;;4992097;28;20460;-70
2023/06/10 00:11:00;;;;;;;4.50;3.65;;;21.60;99.90;;;;;;4993667;28;20117;-71
2023/06/10 00:13:26;;;;;;;5.50;3.65;;;21.50;99.90;;;;;;5006000;28;20057;-71
2023/06/10 00:15:51;;;;;;;4.32;3.13;;;21.50;99.90;;;;;;5012178;28;20117;-71
2023/06/10 00:18:17;;;;;;;4.28;3.22;;;21.50;99.90;;;;;;5026410;28;20053;-71
2023/06/10 00:20:43;;;;;;;4.93;3.88;;;21.50;99.90;;;;;;5012745;28;20030;-71
2023/06/10 00:23:09;;;;;;;4.35;3.85;;;21.50;99.90;;;;;;5009912;28;20024;-71
2023/06/10 00:25:35;;;;;;;5.07;3.33;;;21.40;99.90;;;;;;5012305;28;20155;-71
2023/06/10 00:28:01;;;;;;;5.15;3.63;;;21.40;99.90;;;;;;5012786;28;20037;-70
2023/06/10 00:30:27;;;;;;;3.88;2.75;;;21.40;99.90;;;;;;5011748;28;20034;-70
2023/06/10 00:32:52;;;;;;;4.25;3.50;;;21.40;99.90;;;;;;5009513;28;20057;-71
2023/06/10 00:35:18;;;;;;;5.68;3.47;;;21.40;99.90;;;;;;5011373;28;20497;-71
2023/06/10 00:37:44;;;;;;;5.60;3.80;;;21.30;99.90;;;;;;5011642;28;20140;-70
2023/06/10 00:40:10;;;;;;;4.18;3.60;;;21.30;99.90;;;;;;5012306;28;20105;-71
2023/06/10 00:42:36;;;;;;;7.53;3.40;;;21.30;99.90;;;;;;5010805;28;20113;-70
2023/06/10 00:45:03;;;;;;;4.97;3.45;;;21.20;99.90;;;;;;5012176;28;20148;-71
2023/06/10 00:47:29;;;;;;;5.35;3.55;;;21.20;99.90;;;;;;5012084;28;20026;-70
2023/06/10 00:49:55;;;;;;;6.22;3.28;;;21.20;99.90;;;;;;5012722;28;20497;-71
2023/06/10 00:52:22;;;;;;;3.28;2.97;;;21.20;99.90;;;;;;5010691;28;20030;-71
2023/06/10 00:54:48;;;;;;;;;;;21.10;99.90;;;;;;5010259;28;20038;-72
2023/06/10 00:57:13;;;;;;;3.97;3.20;;;21.10;99.90;;;;;;5012224;28;20380;-70
2023/06/10 00:59:41;;;;;;;6.25;3.28;;;21.10;99.90;;;;;;5007886;28;20030;-71
2023/06/10 01:02:07;;;;;;;4.68;3.90;;;21.10;99.90;;;;;;5002797;28;20368;-71
2023/06/10 01:04:33;;;;;;;6.70;3.60;;;21.10;99.90;;;;;;5015626;28;20478;-71
2023/06/10 01:07:17;;;;;;;5.65;3.60;;;21.10;99.90;;;;;;5015860;28;20022;-70
2023/06/10 01:09:53;;;;;;;4.18;2.95;;;21.00;99.90;;;;;;5015496;28;20033;-71
2023/06/10 01:12:40;;;;;;;7.45;3.10;;;21.00;99.90;;;;;;5015887;28;20022;-71
2023/06/10 01:15:07;;;;;;;9.97;3.13;;;21.00;99.90;;;;;;5015115;28;20041;-70
2023/06/10 01:17:33;;;;;;;5.13;2.97;;;21.00;99.90;;;;;;5014786;28;20033;-70
2023/06/10 01:19:59;;;;;;;4.43;3.20;;;21.00;99.90;;;;;;5015741;28;20613;-71
2023/06/10 01:22:28;;;;;;;4.43;3.22;;;20.90;99.90;;;;;;5015189;28;20046;-71
2023/06/10 01:24:57;;;;;;;7.32;3.47;;;20.90;99.90;;;;;;5015087;28;20521;-70
2023/06/10 01:27:30;;;;;;;5.70;2.70;;;20.90;99.90;;;;;;5030804;28;20501;-70
2023/06/10 01:30:03;;;;;;;7.15;3.58;;;20.80;99.90;;;;;;5015049;28;20478;-70
2023/06/10 01:32:40;;;;;;;6.50;3.58;;;20.80;99.80;;;;;;5014828;28;20513;-70
2023/06/10 01:35:08;;;;;;;5.43;3.28;;;20.70;99.70;;;;;;5015606;28;20040;-70
2023/06/10 01:37:34;;;;;;;4.75;2.95;;;20.70;99.80;;;;;;5014661;28;20029;-71
2023/06/10 01:40:05;;;;;;;6.03;3.45;;;20.80;99.80;;;;;;5014869;28;20029;-71
2023/06/10 01:42:32;;;;;;;7.75;3.28;;;20.70;99.80;;;;;;5015422;28;20022;-71
2023/06/10 01:44:58;;;;;;;4.20;3.53;;;20.70;99.90;;;;;;5014803;28;20149;-70
2023/06/10 01:47:25;;;;;;;4.82;3.10;;;20.60;99.90;;;;;;5014732;28;20026;-71
2023/06/10 01:49:53;;;;;;;5.63;3.10;;;20.60;99.90;;;;;;5014971;28;20112;-71
2023/06/10 01:52:18;;;;;;;6.85;3.40;;;20.60;99.90;;;;;;5014638;28;20045;-71
2023/06/10 01:54:44;;;;;;;5.63;4.00;;;20.60;99.90;;;;;;5010663;28;20413;-71
2023/06/10 01:57:10;;;;;;;4.57;3.53;;;20.60;99.60;;;;;;5008869;28;20124;-71
2023/06/10 01:59:39;;;;;;;6.20;3.00;;;20.50;99.80;;;;;;5014390;28;20533;-71
2023/06/10 02:02:06;;;;;;;4.35;2.70;;;20.50;99.90;;;;;;5013832;28;20026;-70
2023/06/10 02:04:31;;;;;;;4.38;2.92;;;20.50;99.80;;;;;;5014653;28;20065;-70
2023/06/10 02:06:59;;;;;;;4.78;3.35;;;20.40;99.60;;;;;;5014976;28;20392;-71
2023/06/10 02:09:25;;;;;;;10.57;3.58;;;20.40;99.80;;;;;;5011649;28;20406;-71
2023/06/10 02:11:52;;;;;;;9.13;3.70;;;20.40;99.80;;;;;;5013876;28;20029;-72
2023/06/10 02:14:18;;;;;;;7.85;3.78;;;20.40;99.90;;;;;;5014179;28;20030;-71
2023/06/10 02:16:45;;;;;;;3.63;2.72;;;20.30;99.90;;;;;;5013889;28;20026;-71
2023/06/10 02:19:11;;;;;;;5.20;3.80;;;20.30;99.90;;;;;;5014186;28;20030;-71
2023/06/10 02:21:38;;;;;;;6.40;3.63;;;20.30;99.90;;;;;;5013240;28;20022;-71
2023/06/10 02:24:04;;;;;;;5.78;2.60;;;20.30;99.70;;;;;;5013952;28;20053;-73
2023/06/10 02:26:30;;;;;;;4.25;3.10;;;20.30;99.90;;;;;;5014478;28;20014;-71
2023/06/10 02:28:56;;;;;;;7.07;2.90;;;20.30;99.90;;;;;;5014409;28;20512;-72
2023/06/10 02:31:25;;;;;;;7.82;3.58;;;20.30;99.90;;;;;;5025198;28;20510;-71
2023/06/10 02:33:50;;;;;;;7.13;3.33;;;20.30;99.90;;;;;;5014062;28;20129;-72
2023/06/10 02:36:16;;;;;;;7.43;3.47;;;20.20;99.90;;;;;;5012405;28;20556;-70
2023/06/10 02:38:43;;;;;;;4.18;3.13;;;20.20;99.90;;;;;;5014316;28;20034;-73
2023/06/10 02:41:10;;;;;;;6.82;3.13;;;20.20;99.90;;;;;;5013620;28;20025;-72
2023/06/10 02:43:35;;;;;;;6.95;3.55;;;20.20;99.90;;;;;;5014201;28;20030;-72
2023/06/10 02:46:01;;;;;;;6.07;3.95;;;20.20;99.90;;;;;;5006888;28;20030;-72
2023/06/10 02:48:27;;;;;;;7.60;3.80;;;20.10;99.90;;;;;;4994579;28;20459;-72
2023/06/10 02:50:53;;;;;;;6.57;3.28;;;20.00;99.90;;;;;;5009821;28;20064;-71
2023/06/10 02:53:19;;;;;;;9.30;3.15;;;20.00;99.90;;;;;;5012766;28;20410;-72
2023/06/10 02:55:44;;;;;;;4.13;3.05;;;19.90;99.90;;;;;;5013055;28;20034;-70
2023/06/10 02:58:10;;;;;;;4.13;3.22;;;19.90;99.90;;;;;;5012611;28;20042;-73
2023/06/10 03:00:36;;;;;;;8.43;2.70;;;19.80;99.90;;;;;;5012716;28;20390;-72
2023/06/10 03:03:05;;;;;;;13.95;4.22;;;19.80;99.90;;;;;;5012664;28;20022;-72
2023/06/10 03:05:31;;;;;;;6.72;3.70;;;19.80;99.90;;;;;;5011625;28;20061;-73
2023/06/10 03:07:56;;;;;;;11.05;4.32;;;19.80;99.90;;;;;;5013787;28;20033;-71
2023/06/10 03:10:22;;;;;;;5.10;3.05;;;19.70;99.90;;;;;;5028396;28;20025;-71
2023/06/10 03:12:48;;;;;;;5.35;2.60;;;19.70;99.90;;;;;;5013417;28;20026;-72
2023/06/10 03:15:15;;;;;;;3.90;2.97;;;19.70;99.90;;;;;;5013230;28;20543;-71
2023/06/10 03:17:42;;;;;;;3.65;2.55;;;19.60;99.90;;;;;;4991091;28;20215;-71
2023/06/10 03:20:10;;;;;;;6.60;3.23;;;19.60;99.90;;;;;;4989216;28;20042;-71
2023/06/10 03:22:35;;;;;;;3.70;2.88;;;19.60;99.90;;;;;;4991832;28;20066;-71
2023/06/10 03:25:04;;;;;;;4.35;3.15;;;19.60;99.90;;;;;;4990747;28;20030;-71
2023/06/10 03:27:32;;;;;;;6.15;2.85;;;19.50;99.90;;;;;;4991077;28;20034;-72
2023/06/10 03:29:59;;;;;;;6.25;3.25;;;19.50;99.90;;;;;;4975442;28;20088;-71
2023/06/10 03:32:25;;;;;;;6.95;3.70;;;19.50;99.90;;;;;;4990617;28;20534;-70
2023/06/10 03:34:51;;;;;;;4.97;3.22;;;19.40;99.90;;;;;;4991638;28;20031;-71
2023/06/10 03:37:16;;;;;;;5.13;3.15;;;19.40;99.90;;;;;;4988966;28;20123;-71
2023/06/10 03:39:42;;;;;;;3.95;2.92;;;19.40;99.90;;;;;;4991265;28;20576;-71
2023/06/10 03:42:08;;;;;;;10.55;3.10;;;19.40;99.90;;;;;;4991547;28;20030;-71
2023/06/10 03:44:35;;;;;;;6.03;3.30;;;19.40;99.90;;;;;;4991622;28;20037;-71
2023/06/10 03:47:00;;;;;;;4.57;2.78;;;19.40;99.90;;;;;;4963865;28;20503;-71
2023/06/10 03:49:28;;;;;;;6.03;3.63;;;19.50;99.90;;;;;;5011289;28;20033;-71
2023/06/10 03:51:54;;;;;;;4.90;3.00;;;19.50;99.90;;;;;;5033006;28;20384;-71
2023/06/10 03:54:20;;;;;;;6.75;2.75;;;19.50;99.90;;;;;;5020145;28;20072;-72
2023/06/10 03:56:48;;;;;;;5.40;3.10;;;19.50;99.90;;;;;;5013427;28;20463;-71
2023/06/10 03:59:13;;;;;;;6.30;3.20;;;19.50;99.90;;;;;;5013052;28;20032;-71
2023/06/10 04:01:41;;;;;;;3.38;2.65;;;19.50;99.90;;;;;;5011989;28;20488;-71
2023/06/10 04:04:06;;;;;;;8.98;2.80;;;19.50;99.90;;;;;;5009125;28;20026;-71
2023/06/10 04:06:32;;;;;;;4.78;3.03;;;19.50;99.90;;;;;;5012728;28;20032;-71
2023/06/10 04:08:58;;;;;;;5.38;2.78;;;19.50;99.90;;;;;;5012566;28;20034;-71
2023/06/10 04:11:24;;;;;;;7.85;3.83;;;19.50;99.90;;;;;;5012998;28;20022;-71
2023/06/10 04:13:50;;;;;;;4.55;3.17;;;19.50;99.90;;;;;;5012487;28;20534;-70
2023/06/10 04:16:16;;;;;;;5.57;3.38;;;19.60;99.90;;;;;;5012448;28;20109;-71
2023/06/10 04:18:42;;;;;;;6.05;2.83;;;19.50;99.90;;;;;;5011013;28;20390;-71
2023/06/10 04:21:08;;;;;;;3.63;2.78;;;19.50;99.90;;;;;;5012447;28;20092;-70
2023/06/10 04:23:39;;;;;;;7.25;2.80;;;19.50;99.90;;;;;;5010682;28;20061;-70
2023/06/10 04:26:05;;;;;;;6.93;3.25;;;19.60;99.90;;;;;;5011784;28;20026;-70
2023/06/10 04:28:31;;;;;;;4.70;4.25;;;19.50;99.90;;;;;;5011915;28;20037;-70
2023/06/10 04:30:57;;;;;;;11.52;3.50;;;19.50;99.90;;;;;;5012184;28;20526;-71
2023/06/10 04:33:24;;;;;;;11.82;3.83;;;19.50;99.90;;;;;;4994829;28;20414;-69
2023/06/10 04:35:51;;;;;;;11.20;3.60;;;19.50;99.90;;;;;;4996545;28;20394;-71
2023/06/10 04:38:16;;;;;;;5.65;4.35;;;19.40;99.90;;;;;;5025942;28;20036;-70
2023/06/10 04:40:42;;;;;;;4.35;2.75;;;19.40;99.90;;;;;;5015993;28;20100;-70
2023/06/10 04:43:07;;;;;;;6.50;2.92;;;19.50;99.90;;;;;;5031243;28;20076;-69
2023/06/10 04:45:33;;;;;;;8.07;3.00;;;19.50;99.90;;;;;;5015708;28;20482;-70
2023/06/10 04:47:59;;;;;;;8.60;3.65;;;19.50;99.90;;;;;;5014922;28;20474;-71
2023/06/10 04:50:24;;;;;;;9.10;3.28;;;19.50;99.90;;;;;;5014496;28;20034;-71
2023/06/10 04:52:50;;;;;;;4.75;4.15;;;19.50;99.90;;;;;;5015656;28;20040;-71
2023/06/10 04:55:16;;;;;;;6.05;2.85;;;19.50;99.90;;;;;;5016146;28;20489;-72
2023/06/10 04:57:42;;;;;;;4.63;3.00;;;19.50;99.90;;;;;;5015826;28;20124;-71
2023/06/10 05:00:08;;;;;;;10.55;3.38;;;19.60;99.90;;;;;;5015485;28;20015;-70
2023/06/10 05:02:34;;;;;;;4.47;3.40;;;19.70;99.90;;;;;;5015587;28;20025;-71
2023/06/10 05:05:00;;;;;;;7.50;3.20;;;19.70;99.90;;;;;;5031257;28;20410;-71
2023/06/10 05:07:25;;;;;;;5.03;3.10;;;19.70;99.90;;;;;;4993696;28;20046;-72
2023/06/10 05:09:52;;;;;;;4.15;2.83;;;19.70;99.90;;;;;;4990111;28;20081;-71
2023/06/10 05:12:19;;;;;;;5.27;2.97;;;19.70;99.90;;;;;;4992067;28;20042;-71
2023/06/10 05:14:47;;;;;;;5.07;3.30;;;19.80;99.90;;;;;;4994278;28;20169;-71
2023/06/10 05:17:13;;;;;;;7.00;3.08;;;19.90;99.90;;;;;;4977149;28;20066;-71
2023/06/10 05:19:38;;;;;;;7.53;3.40;;;19.90;99.90;;;;;;4993005;28;20065;-71
2023/06/10 05:22:04;;;;;;;7.80;3.65;;;20.00;99.90;;;;;;4994051;28;20479;-70
2023/06/10 05:24:30;;;;;;;8.55;3.35;;;19.90;99.90;;;;;;4993444;28;20031;-71
2023/06/10 05:26:56;;;;;;;7.55;3.17;;;20.00;99.90;;;;;;4993971;28;20033;-71
2023/06/10 05:29:22;;;;;;;6.78;3.28;;;20.00;99.90;;;;;;4977246;28;20571;-71
2023/06/10 05:31:48;;;;;;;3.47;3.03;;;20.10;99.90;;;;;;4992983;28;20046;-72
2023/06/10 05:34:14;;;;;;;5.70;2.92;;;20.10;99.90;;;;;;4993938;28;20035;-71
2023/06/10 05:36:39;;;;;;;7.20;2.90;;;20.20;99.90;;;;;;4935769;29;20551;-71
2023/06/10 05:39:05;;;;;;;6.10;3.17;;;20.30;99.90;;;;;;4965272;28;20063;-72
2023/06/10 05:41:30;;;;;;;7.00;3.67;;;20.30;99.90;;;;;;4974207;28;20519;-71
2023/06/10 05:43:56;;;;;;;6.47;3.60;;;20.40;99.90;;;;;;4974347;28;20540;-71
2023/06/10 05:46:22;;;;;;;9.25;3.63;;;20.50;99.90;;;;;;4972365;28;20043;-71
2023/06/10 05:48:47;;;;;;;6.53;3.83;;;20.50;99.90;;;;;;4957368;28;20519;-71
2023/06/10 05:51:13;;;;;;;4.85;3.45;;;20.50;99.90;;;;;;4974042;28;20556;-71
2023/06/10 05:53:39;;;;;;;6.63;3.20;;;20.60;99.90;;;;;;4973416;28;20610;-72
2023/06/10 05:56:05;;;;;;;5.65;3.50;;;20.60;99.90;;;;;;4973562;28;20042;-71
2023/06/10 05:58:30;;;;;;;6.65;3.75;;;20.80;99.90;;;;;;4973953;28;20035;-70
2023/06/10 06:00:56;;;;;;;6.47;2.88;;;21.10;99.90;;;;;;4973789;28;20581;-70
2023/06/10 06:03:22;;;;;;;3.15;2.83;;;21.30;99.90;;;;;;4972644;28;20031;-72
2023/06/10 06:05:48;;;;;;;5.63;3.85;;;21.40;99.90;;;;;;4973951;28;20035;-71
2023/06/10 06:08:17;;;;;;;11.00;3.70;;;21.40;99.90;;;;;;5003828;28;20502;-71
2023/06/10 06:10:43;;;;;;;5.35;2.88;;;21.40;99.90;;;;;;5014101;28;20030;-71
2023/06/10 06:13:08;;;;;;;7.10;3.58;;;21.60;99.90;;;;;;5014066;28;20679;-70
2023/06/10 06:15:34;;;;;;;3.85;2.85;;;22.00;99.90;;;;;;5013574;28;20034;-72
2023/06/10 06:17:59;;;;;;;8.18;3.90;;;21.90;99.90;;;;;;5010064;28;20390;-70
2023/06/10 06:20:25;;;;;;;6.32;3.10;;;22.00;99.90;;;;;;5014571;28;20477;-71
2023/06/10 06:22:51;;;;;;;3.78;2.95;;;22.20;99.90;;;;;;5016513;28;20029;-71
2023/06/10 06:25:16;;;;;;;6.25;3.08;;;22.60;99.90;;;;;;5015023;28;20103;-71
2023/06/10 06:27:42;;;;;;;7.53;3.33;;;23.00;99.90;;;;;;5023858;28;20148;-71
2023/06/10 06:30:08;;;;;;;4.63;3.17;;;23.40;99.90;;;;;;4997951;28;20434;-71
2023/06/10 06:32:34;;;;;;;3.70;2.75;;;23.80;99.90;;;;;;5010983;28;20152;-69
2023/06/10 06:35:01;;;;;;;6.32;3.22;;;23.80;99.90;;;;;;5012224;28;20041;-71
2023/06/10 06:37:27;;;;;;;3.95;2.83;;;23.90;99.70;;;;;;4995031;28;20046;-70
2023/06/10 06:39:53;;;;;;;10.52;3.40;;;23.80;99.40;;;;;;5012114;28;20404;-70
2023/06/10 06:42:20;;;;;;;5.82;3.13;;;23.90;99.30;;;;;;5011653;28;20036;-70
2023/06/10 06:44:49;;;;;;;13.55;3.35;;;24.40;99.20;;;;;;5011745;28;20038;-70
2023/06/10 06:47:17;;;;;;;4.53;3.33;;;24.80;98.80;;;;;;4995290;28;20029;-71
2023/06/10 06:49:43;;;;;;;3.90;2.92;;;24.60;98.70;;;;;;5011832;28;20034;-70
2023/06/10 06:52:08;;;;;;;5.88;2.95;;;24.70;98.50;;;;;;5011944;28;20394;-70
2023/06/10 06:54:34;;;;;;;5.65;2.60;;;24.80;98.40;;;;;;5011602;28;20671;-71
2023/06/10 06:57:00;;;;;;;7.03;3.38;;;24.80;98.50;;;;;;4995436;28;20030;-73
2023/06/10 06:59:26;;;;;;;11.15;3.75;;;24.90;98.30;;;;;;5011188;28;20061;-70
2023/06/10 07:01:53;;;;;;;7.60;3.30;;;25.00;98.20;;;;;;5011782;28;20025;-71
2023/06/10 07:04:21;;;;;;;9.57;3.75;;;25.50;97.60;;;;;;5011517;28;20088;-71
2023/06/10 07:06:47;;;;;;;4.03;3.33;;;26.50;96.80;;;;;;5011533;28;20379;-70
2023/06/10 07:09:14;;;;;;;5.60;3.25;;;28.00;96.20;;;;;;5008739;28;20042;-70
2023/06/10 07:11:40;;;;;;;4.88;2.67;;;29.50;94.80;;;;;;5013548;28;20064;-70
2023/06/10 07:14:09;;;;;;;5.20;2.55;;;30.40;94.20;;;;;;5013581;28;20431;-71
2023/06/10 07:16:36;;;;;;;4.00;3.08;;;31.00;93.80;;;;;;5012420;28;20030;-71
2023/06/10 07:19:01;;;;;;;;;;;31.20;93.10;;;;;;5014043;28;20029;-69
2023/06/10 07:21:29;;;;;;;5.83;3.13;;;30.90;93.20;;;;;;5012975;28;19905;-71
2023/06/10 07:23:56;;;;;;;4.50;3.25;;;30.80;92.80;;;;;;5012760;28;20034;-70
2023/06/10 07:26:23;;;;;;;6.45;3.25;;;30.70;92.90;;;;;;5013391;28;20022;-70
2023/06/10 07:28:48;;;;;;;5.80;2.97;;;30.90;92.50;;;;;;5013376;28;20221;-69
2023/06/10 07:31:14;;;;;;;7.90;2.60;;;31.20;92.70;;;;;;5013207;28;20550;-71
2023/06/10 07:33:40;;;;;;;4.90;3.47;;;31.40;92.70;;;;;;5013255;28;20049;-70
2023/06/10 07:36:06;;;;;;;6.43;3.38;;;31.30;92.80;;;;;;5013294;28;20030;-71
2023/06/10 07:38:32;;;;;;;7.70;2.90;;;31.20;92.10;;;;;;5012998;28;20113;-72
2023/06/10 07:40:58;;;;;;;9.05;3.15;;;30.70;92.20;;;;;;4998285;28;20050;-71
2023/06/10 07:43:24;;;;;;;5.57;2.83;;;30.20;92.50;;;;;;4992303;28;20480;-71
2023/06/10 07:45:51;;;;;;;3.55;2.90;;;30.00;92.90;;;;;;4993736;28;20027;-71
2023/06/10 07:48:16;;;;;;;;;;;29.80;93.00;;;;;;4996454;28;20061;-70
2023/06/10 07:50:42;;;;;;;7.17;2.90;;;29.50;93.50;;;;;;5013282;28;20370;-71
2023/06/10 07:53:10;;;;;;;17.52;4.05;;;29.30;93.70;;;;;;5012902;28;20434;-71
2023/06/10 07:55:36;;;;;;;5.07;2.75;;;29.10;93.60;;;;;;4993567;28;20089;-70
2023/06/10 07:58:02;;;;;;;6.00;3.03;;;29.00;93.30;;;;;;4993838;28;20034;-71
2023/06/10 08:00:28;;;;;;;3.87;2.60;;;28.90;93.50;;;;;;4955343;28;20034;-72
2023/06/10 08:02:56;;;;;;;3.63;2.63;;;28.80;93.70;;;;;;4975308;28;20039;-72
2023/06/10 08:05:21;;;;;;;14.35;3.00;;;28.70;93.80;;;;;;4940161;28;20094;-70
2023/06/10 08:07:47;;;;;;;3.65;2.97;;;28.90;93.60;;;;;;4959981;28;20034;-70
2023/06/10 08:10:15;;;;;;;3.23;2.93;;;28.90;93.50;;;;;;4973404;28;20117;-70
2023/06/10 08:12:41;;;;;;;5.47;3.00;;;28.80;93.40;;;;;;4985919;28;20491;-70
2023/06/10 08:15:07;;;;;;;8.95;3.42;;;28.80;93.30;;;;;;4979470;28;20039;-69
2023/06/10 08:17:32;;;;;;;6.77;3.17;;;28.70;93.10;;;;;;4978033;28;20583;-70
2023/06/10 08:19:58;;;;;;;4.30;3.00;;;28.70;93.30;;;;;;4975652;28;20147;-69
2023/06/10 08:22:24;;;;;;;5.63;3.57;;;29.00;93.20;;;;;;4975888;28;20042;-71
2023/06/10 08:24:50;;;;;;;7.60;3.07;;;29.00;93.30;;;;;;4975607;28;20451;-69
2023/06/10 08:27:15;;;;;;;5.97;2.97;;;29.30;93.00;;;;;;4973494;28;20101;-70
2023/06/10 08:29:41;;;;;;;6.47;3.10;;;29.70;92.90;;;;;;4973764;28;20027;-71
2023/06/10 08:32:07;;;;;;;4.13;3.27;;;29.90;92.20;;;;;;5006482;28;20057;-73
2023/06/10 08:34:35;;;;;;;8.20;4.10;;;30.10;91.90;;;;;;5016318;28;20033;-71
2023/06/10 08:37:02;;;;;;;5.40;2.88;;;30.70;91.50;;;;;;5014992;28;20014;-70
2023/06/10 08:39:31;;;;;;;;;;;30.70;91.70;;;;;;5013741;28;20128;-70
2023/06/10 08:42:10;;;;;;;3.35;2.67;;;30.50;91.70;;;;;;4996872;28;19909;-70
2023/06/10 08:44:39;;;;;;;3.22;2.92;;;30.70;91.70;;;;;;5007498;28;20030;-70
2023/06/10 08:47:14;;;;;;;8.75;3.25;;;30.70;91.60;;;;;;5015549;28;20112;-70
2023/06/10 08:49:44;;;;;;;4.00;3.10;;;31.10;91.30;;;;;;5016521;28;20030;-71
2023/06/10 08:52:14;;;;;;;3.75;3.15;;;30.60;91.80;;;;;;5016258;28;20026;-69
2023/06/10 08:55:02;;;;;;;5.80;3.53;;;30.80;91.60;;;;;;5016283;28;20025;-70
2023/06/10 08:57:30;;;;;;;4.38;2.85;;;30.50;91.50;;;;;;5014829;28;20040;-70
2023/06/10 08:59:57;;;;;;;5.22;3.15;;;31.00;91.50;;;;;;5014900;28;20422;-70
2023/06/10 09:02:24;;;;;;;4.50;3.30;;;31.10;91.30;;;;;;5012693;28;20121;-71
2023/06/10 09:04:51;;;;;;;5.20;3.70;;;31.30;91.10;;;;;;5015710;28;20093;-73
2023/06/10 09:07:17;;;;;;;11.20;3.40;;;31.10;91.40;;;;;;4998160;28;20030;-71
2023/06/10 09:09:43;;;;;;;5.40;3.33;;;31.10;91.20;;;;;;5011307;28;20113;-70
2023/06/10 09:12:10;;;;;;;6.68;3.10;;;31.10;91.30;;;;;;4996236;28;20022;-70
2023/06/10 09:14:36;;;;;;;4.32;2.95;;;31.60;90.90;;;;;;5013647;28;20052;-71
2023/06/10 09:17:02;;;;;;;3.83;3.40;;;31.50;90.60;;;;;;5018749;28;20105;-71
2023/06/10 09:19:29;;;;;;;5.00;3.30;;;31.40;90.70;;;;;;5014931;28;20553;-70
2023/06/10 09:21:54;;;;;;;;;;;30.60;90.90;;;;;;5030727;28;20029;-71
2023/06/10 09:24:23;;;;;;;3.50;3.20;;;30.30;91.50;;;;;;5015556;28;19916;-71
2023/06/10 09:26:48;;;;;;;6.03;3.30;;;30.50;91.40;;;;;;5015552;28;20287;-71
2023/06/10 09:29:14;;;;;;;3.20;2.90;;;30.20;91.60;;;;;;5017972;28;20218;-72
2023/06/10 09:31:40;;;;;;;3.40;2.80;;;29.70;91.50;;;;;;5021629;28;20060;-71
2023/06/10 09:34:16;;;;;;;11.15;3.40;;;29.40;91.90;;;;;;5015312;28;20052;-71
2023/06/10 09:36:42;;;;;;;2.70;2.47;;;29.40;92.20;;;;;;5014980;28;20052;-71
2023/06/10 09:39:18;;;;;;;6.60;3.38;;;29.60;91.90;;;;;;5030896;28;20037;-70
2023/06/10 09:41:45;;;;;;;3.58;3.03;;;29.60;91.90;;;;;;5030630;28;20076;-70
2023/06/10 09:44:17;;;;;;;4.53;3.22;;;29.90;91.30;;;;;;5015373;28;20474;-71
2023/06/10 09:46:45;;;;;;;4.60;3.17;;;30.10;91.40;;;;;;5014646;28;20083;-71
2023/06/10 09:49:11;;;;;;;6.25;3.22;;;29.90;91.40;;;;;;5015286;28;20034;-71
2023/06/10 09:51:36;;;;;;;3.90;2.90;;;29.90;91.80;;;;;;5015262;28;20482;-70
2023/06/10 09:54:04;;;;;;;3.95;2.88;;;29.80;91.60;;;;;;5012511;28;20026;-71
2023/06/10 09:56:36;;;;;;;3.25;2.72;;;30.00;91.80;;;;;;5023467;28;20029;-70
2023/06/10 09:59:03;;;;;;;5.65;2.85;;;30.00;91.40;;;;;;5017058;28;20026;-71
2023/06/10 10:01:30;;;;;;;3.33;2.75;;;30.00;90.90;;;;;;5017571;28;20022;-71
2023/06/10 10:03:55;;;;;;;6.35;2.80;;;29.90;91.10;;;;;;5014985;28;20049;-70
2023/06/10 10:06:21;;;;;;;4.25;3.60;;;30.20;91.40;;;;;;5013542;28;20038;-70
2023/06/10 10:08:49;;;;;;;9.05;3.13;;;30.40;90.80;;;;;;5014916;28;20037;-71
2023/06/10 10:11:23;;;;;;;5.05;3.30;;;30.60;90.90;;;;;;5014429;28;20030;-72
2023/06/10 10:13:51;;;;;;;3.42;2.75;;;30.80;90.90;;;;;;5014834;28;20482;-71
2023/06/10 10:16:22;;;;;;;3.25;2.92;;;30.70;90.70;;;;;;5005989;28;20026;-71
2023/06/10 10:18:55;;;;;;;6.40;3.05;;;30.70;90.40;;;;;;5011363;28;20057;-71
2023/06/10 10:21:26;;;;;;;3.40;3.05;;;30.60;90.70;;;;;;5011418;28;20076;-71
2023/06/10 10:23:58;;;;;;;2.65;2.40;;;30.30;90.00;;;;;;5010218;28;20072;-71
2023/06/10 10:26:26;;;;;;;3.50;2.92;;;30.50;90.20;;;;;;5009843;28;20493;-70
2023/06/10 10:29:00;;;;;;;6.32;3.22;;;30.70;90.30;;;;;;5010489;28;20034;-71
2023/06/10 10:31:29;;;;;;;3.10;2.80;;;30.90;90.10;;;;;;5011834;28;20621;-71
2023/06/10 10:33:58;;;;;;;8.77;3.40;;;30.90;88.70;;;;;;5012454;28;20050;-71
2023/06/10 10:36:24;;;;;;;5.47;3.10;;;31.20;88.10;;;;;;5001522;28;20395;-72
2023/06/10 10:38:51;;;;;;;4.03;3.20;;;31.50;88.10;;;;;;5011973;28;20032;-70
2023/06/10 10:41:18;;;;;;;13.73;3.00;;;31.80;87.30;;;;;;5010515;28;20029;-70
2023/06/10 10:43:44;;;;;;;;;;;31.70;89.20;;;;;;5009062;28;20034;-71
2023/06/10 10:46:18;;;;;;;5.82;3.03;;;31.50;88.30;;;;;;5013181;28;19924;-69
2023/06/10 10:48:45;;;;;;;6.35;2.67;;;31.30;88.60;;;;;;5012236;28;20040;-70
2023/06/10 10:51:11;;;;;;;3.25;2.95;;;31.00;87.60;;;;;;5013281;28;20076;-71
2023/06/10 10:53:38;;;;;;;7.60;3.03;;;30.50;88.00;;;;;;5013447;28;20474;-70
2023/06/10 10:56:20;;;;;;;5.50;3.08;;;30.50;87.00;;;;;;5068073;28;20453;-40
2023/06/10 10:59:04;;;;;;;3.63;2.92;;;30.80;87.90;;;;;;5062143;28;20021;-43
2023/06/10 11:01:46;;;;;;;9.32;2.83;;;31.00;86.90;;;;;;5074684;28;20442;-41
2023/06/10 11:04:12;;;;;;;2.80;2.60;;;31.20;88.40;;;;;;5067339;28;20039;-40
2023/06/10 11:06:38;;;;;;;4.32;2.75;;;31.10;87.70;;;;;;5067099;28;20112;-41
2023/06/10 11:09:27;;;;;;;5.17;3.27;;;30.80;87.90;;;;;;5059029;28;20107;-41
2023/06/10 11:11:56;;;;;;;4.25;2.90;;;31.00;87.40;;;;;;5066073;28;20029;-40
2023/06/10 11:14:29;;;;;;;3.80;2.80;;;31.00;86.70;;;;;;5066068;28;20033;-44
2023/06/10 11:16:58;;;;;;;7.97;3.15;;;31.00;88.20;;;;;;5057921;28;20148;-46
2023/06/10 11:19:34;;;;;;;3.53;3.08;;;30.70;88.10;;;;;;5064085;28;20099;-37
2023/06/10 11:22:01;;;;;;;;;;;30.70;87.00;;;;;;5062583;28;20035;-41
2023/06/10 11:24:27;;;;;;;4.65;3.08;;;30.90;87.00;;;;;;5056687;28;19915;-42
2023/06/10 11:26:53;;;;;;;4.35;3.00;;;31.10;86.60;;;;;;5048826;28;20489;-40
2023/06/10 11:29:20;;;;;;;5.88;3.15;;;31.30;86.00;;;;;;5044169;28;20064;-42
2023/06/10 11:31:48;;;;;;;;;;;31.30;87.50;;;;;;5049826;28;20565;-41
2023/06/10 11:34:23;;;;;;;6.07;3.30;;;31.40;85.60;;;;;;5045139;28;20269;-41
2023/06/10 11:36:49;;;;;;;3.33;3.08;;;31.40;85.40;;;;;;5048654;28;20052;-44
2023/06/10 11:39:15;;;;;;;6.77;3.77;;;31.50;84.80;;;;;;5041639;28;20036;-58
2023/06/10 11:41:41;;;;;;;4.88;3.08;;;31.50;85.90;;;;;;5047828;28;20271;-42
2023/06/10 11:44:12;;;;;;;4.18;3.25;;;31.60;86.80;;;;;;5049346;28;20025;-41
2023/06/10 11:46:39;;;;;;;5.82;3.85;;;31.70;86.40;;;;;;5045442;28;20025;-41
2023/06/10 11:49:05;;;;;;;6.05;3.60;;;31.80;84.00;;;;;;5046813;28;20079;-41
2023/06/10 11:51:36;;;;;;;6.72;2.97;;;31.80;84.40;;;;;;5046112;28;20596;-43
2023/06/10 11:54:03;;;;;;;4.90;3.33;;;31.80;85.30;;;;;;5042670;28;20038;-41
2023/06/10 11:56:30;;;;;;;;;;;31.90;84.00;;;;;;5049645;28;20037;-41
2023/06/10 11:59:04;;;;;;;;;;;31.90;85.00;;;;;;5050052;28;20270;-40
2023/06/10 12:01:30;;;;;;;2.90;2.58;;;32.00;84.90;;;;;;5057095;28;19916;-41
2023/06/10 12:04:11;;;;;;;5.20;3.22;;;32.10;83.90;;;;;;5048207;28;20021;-40
2023/06/10 12:06:43;;;;;;;6.53;3.15;;;32.10;85.30;;;;;;5038294;28;20026;-44
2023/06/10 12:09:21;;;;;;;4.22;3.33;;;31.90;86.10;;;;;;5034504;28;20041;-44
2023/06/10 12:12:02;;;;;;;4.90;3.70;;;31.70;85.00;;;;;;5035596;28;20060;-44
2023/06/10 12:14:56;;;;;;;6.35;2.90;;;31.50;85.00;;;;;;5019620;28;20045;-42
2023/06/10 12:17:23;;;;;;;2.95;2.45;;;31.40;84.10;;;;;;5014129;28;20113;-42
2023/06/10 12:19:50;;;;;;;3.53;3.22;;;31.60;83.60;;;;;;5015796;28;20033;-45
2023/06/10 12:22:16;;;;;;;4.13;2.85;;;31.80;84.30;;;;;;5014818;28;20109;-43
2023/06/10 12:25:04;;;;;;;5.73;3.50;;;31.70;84.30;;;;;;5027174;28;20065;-41
2023/06/10 12:27:31;;;;;;;3.50;3.13;;;31.60;84.70;;;;;;5013992;28;20076;-40
2023/06/10 12:30:00;;;;;;;3.42;2.78;;;31.70;84.70;;;;;;5010328;28;20427;-39
2023/06/10 12:32:46;;;;;;;4.40;2.83;;;32.10;82.10;;;;;;5001607;28;20117;-42
2023/06/10 12:35:13;;;;;;;4.32;3.65;;;32.20;81.50;;;;;;5006705;28;20040;-42
2023/06/10 12:37:40;;;;;;;3.30;3.00;;;32.10;83.20;;;;;;5014058;28;20482;-48
2023/06/10 12:40:08;;;;;;;3.33;2.88;;;32.10;83.20;;;;;;5000210;28;20490;-43
2023/06/10 12:42:36;;;;;;;4.50;2.70;;;32.10;83.10;;;;;;5013864;28;20030;-42
2023/06/10 12:45:01;;;;;;;6.28;2.85;;;32.10;83.40;;;;;;5024758;28;20029;-41
2023/06/10 12:47:32;;;;;;;5.47;2.57;;;31.90;82.60;;;;;;5032801;28;20032;-41
2023/06/10 12:49:59;;;;;;;8.05;2.88;;;32.00;82.40;;;;;;5013364;28;20076;-42